createdAt,value
2023-02-01T00:00:31.396Z,4.47
2023-02-01T00:02:58.234Z,5.25
2023-02-01T00:05:24.966Z,5.35
2023-02-01T00:07:51.705Z,4.82
2023-02-01T00:10:18.900Z,4.65
2023-02-01T00:12:45.827Z,5.00
2023-02-01T00:15:12.583Z,5.93
2023-02-01T00:17:39.321Z,5.30
2023-02-01T00:20:06.671Z,5.68
2023-02-01T00:22:33.571Z,5.07
2023-02-01T00:25:00.340Z,4.85
2023-02-01T00:27:27.045Z,5.35
2023-02-01T00:29:56.301Z,5.82
2023-02-01T00:32:23.266Z,5.75
2023-02-01T00:34:50.013Z,6.30
2023-02-01T00:37:16.723Z,5.22
2023-02-01T00:39:43.453Z,6.32
2023-02-01T00:42:11.035Z,5.40
2023-02-01T00:44:37.807Z,6.15
2023-02-01T00:47:04.570Z,5.68
2023-02-01T00:49:31.347Z,5.90
2023-02-01T00:51:58.118Z,6.55
2023-02-01T00:54:25.119Z,5.97
2023-02-01T00:56:51.933Z,6.63
2023-02-01T00:59:18.693Z,6.18
2023-02-01T01:01:45.564Z,5.93
2023-02-01T01:04:12.378Z,6.07
2023-02-01T01:06:39.217Z,7.25
2023-02-01T01:09:07.884Z,6.72
2023-02-01T01:11:37.577Z,7.20
2023-02-01T01:14:06.771Z,7.00
2023-02-01T01:16:34.335Z,6.97
2023-02-01T01:19:01.857Z,7.18
2023-02-01T01:21:29.432Z,7.63
2023-02-01T01:23:56.547Z,7.38
2023-02-01T01:26:26.539Z,7.63
2023-02-01T01:28:55.615Z,7.30
2023-02-01T01:31:22.710Z,7.53
2023-02-01T01:33:52.097Z,7.22
2023-02-01T01:36:19.385Z,6.85
2023-02-01T01:38:46.232Z,7.55
2023-02-01T01:41:16.676Z,7.88
2023-02-01T01:43:52.934Z,7.70
2023-02-01T01:46:24.988Z,8.02
2023-02-01T01:49:01.427Z,7.97
2023-02-01T01:51:31.419Z,8.77
2023-02-01T01:54:25.192Z,7.40
2023-02-01T01:56:56.428Z,7.45
2023-02-01T01:59:26.230Z,8.30
2023-02-01T02:01:53.638Z,6.53
2023-02-01T02:04:20.896Z,7.70
2023-02-01T02:07:00.695Z,8.27
2023-02-01T02:09:27.505Z,7.63
2023-02-01T02:11:54.275Z,7.45
2023-02-01T02:14:24.009Z,7.10
2023-02-01T02:16:54.221Z,7.78
2023-02-01T02:19:47.710Z,6.93
2023-02-01T02:22:36.365Z,7.47
2023-02-01T02:25:40.617Z,7.40
2023-02-01T02:28:38.382Z,7.07
2023-02-01T02:31:40.397Z,6.55
2023-02-01T02:34:16.200Z,6.65
2023-02-01T02:37:20.228Z,6.40
2023-02-01T02:39:59.239Z,6.30
2023-02-01T02:43:00.834Z,5.82
2023-02-01T02:46:14.679Z,5.60
2023-02-01T02:49:01.593Z,6.22
2023-02-01T02:52:09.691Z,6.32
2023-02-01T02:54:47.361Z,5.88
2023-02-01T02:57:47.617Z,5.85
2023-02-01T03:00:36.993Z,5.28
2023-02-01T03:03:22.350Z,5.25
2023-02-01T03:05:51.570Z,5.03
2023-02-01T03:08:32.300Z,5.80
2023-02-01T03:11:05.109Z,5.68
2023-02-01T03:14:01.624Z,5.07
2023-02-01T03:16:31.294Z,6.15
2023-02-01T03:19:22.207Z,4.88
2023-02-01T03:21:56.142Z,4.93
2023-02-01T03:24:36.469Z,6.53
2023-02-01T03:27:12.024Z,6.53
2023-02-01T03:29:48.917Z,5.70
2023-02-01T03:32:15.965Z,4.93
2023-02-01T03:34:43.577Z,5.35
2023-02-01T03:37:12.573Z,4.95
2023-02-01T03:39:50.983Z,5.03
2023-02-01T03:42:29.844Z,4.97
2023-02-01T03:45:09.249Z,5.10
2023-02-01T03:47:41.869Z,5.05
2023-02-01T03:50:13.837Z,4.78
2023-02-01T03:52:49.807Z,4.90
2023-02-01T03:55:21.266Z,5.28
2023-02-01T03:57:55.159Z,4.97
2023-02-01T04:00:25.543Z,6.20
2023-02-01T04:02:53.747Z,5.20
2023-02-01T04:05:21.567Z,4.38
2023-02-01T04:07:48.367Z,4.40
2023-02-01T04:10:17.994Z,5.25
2023-02-01T04:12:46.107Z,5.82
2023-02-01T04:15:12.889Z,4.78
2023-02-01T04:17:39.643Z,5.70
2023-02-01T04:20:06.913Z,5.30
2023-02-01T04:22:33.680Z,5.72
2023-02-01T04:25:00.462Z,5.13
2023-02-01T04:27:27.523Z,5.40
2023-02-01T04:29:55.572Z,4.75
2023-02-01T04:32:23.801Z,4.85
2023-02-01T04:34:50.573Z,4.60
2023-02-01T04:37:17.314Z,4.88
2023-02-01T04:39:44.084Z,4.85
2023-02-01T04:42:10.927Z,5.93
2023-02-01T04:44:42.849Z,4.65
2023-02-01T04:47:10.623Z,4.85
2023-02-01T04:49:37.428Z,4.35
2023-02-01T04:52:04.427Z,4.25
2023-02-01T04:54:31.167Z,4.43
2023-02-01T04:56:57.942Z,5.38
2023-02-01T04:59:24.716Z,5.47
2023-02-01T05:01:51.559Z,4.30
2023-02-01T05:04:19.702Z,4.75
2023-02-01T05:06:46.843Z,5.18
2023-02-01T05:09:13.719Z,4.57
2023-02-01T05:11:59.321Z,4.68
2023-02-01T05:14:26.093Z,5.63
2023-02-01T05:16:52.873Z,5.85
2023-02-01T05:19:19.790Z,4.57
2023-02-01T05:21:46.524Z,4.55
2023-02-01T05:24:14.770Z,4.60
2023-02-01T05:26:42.371Z,4.68
2023-02-01T05:29:10.758Z,5.47
2023-02-01T05:31:38.211Z,5.45
2023-02-01T05:34:06.094Z,4.93
2023-02-01T05:36:33.176Z,4.55
2023-02-01T05:38:59.967Z,4.43
2023-02-01T05:41:26.704Z,5.03
2023-02-01T05:44:08.364Z,4.45
2023-02-01T05:46:36.820Z,4.72
2023-02-01T05:49:04.558Z,4.90
2023-02-01T05:51:31.502Z,4.88
2023-02-01T05:53:58.280Z,4.85
2023-02-01T05:56:25.073Z,4.65
2023-02-01T05:58:51.862Z,5.38
2023-02-01T06:01:18.599Z,4.97
2023-02-01T06:03:45.510Z,5.50
2023-02-01T06:06:12.352Z,5.50
2023-02-01T06:08:41.270Z,6.63
2023-02-01T06:11:08.331Z,5.18
2023-02-01T06:13:35.519Z,5.70
2023-02-01T06:16:04.160Z,4.70
2023-02-01T06:18:31.718Z,4.45
2023-02-01T06:21:01.721Z,4.43
2023-02-01T06:23:30.406Z,5.82
2023-02-01T06:26:05.831Z,4.90
2023-02-01T06:28:33.741Z,5.40
2023-02-01T06:31:07.478Z,5.50
2023-02-01T06:33:35.421Z,5.10
2023-02-01T06:36:04.854Z,4.57
2023-02-01T06:38:31.927Z,4.57
2023-02-01T06:40:59.242Z,5.43
2023-02-01T06:43:27.473Z,5.40
2023-02-01T06:45:54.895Z,5.45
2023-02-01T06:48:21.651Z,5.55
2023-02-01T06:50:48.408Z,5.53
2023-02-01T06:53:15.147Z,6.47
2023-02-01T06:55:41.889Z,6.53
2023-02-01T06:58:08.680Z,5.60
2023-02-01T07:00:36.164Z,5.60
2023-02-01T07:03:03.276Z,5.00
2023-02-01T07:05:30.057Z,4.90
2023-02-01T07:07:56.851Z,4.88
2023-02-01T07:10:24.005Z,4.72
2023-02-01T07:12:51.037Z,5.38
2023-02-01T07:15:17.916Z,5.55
2023-02-01T07:17:45.773Z,5.75
2023-02-01T07:20:12.602Z,5.47
2023-02-01T07:22:45.185Z,5.60
2023-02-01T07:25:11.898Z,4.97
2023-02-01T07:27:38.885Z,4.43
2023-02-01T07:30:06.629Z,3.92
2023-02-01T07:32:33.549Z,4.25
2023-02-01T07:35:00.467Z,3.67
2023-02-01T07:37:27.260Z,3.67
2023-02-01T07:39:54.104Z,4.28
2023-02-01T07:42:20.853Z,4.53
2023-02-01T07:44:47.630Z,3.17
2023-02-01T07:47:14.423Z,5.18
2023-02-01T07:49:41.139Z,3.58
2023-02-01T07:52:07.876Z,4.13
2023-02-01T07:54:34.671Z,3.42
2023-02-01T07:57:01.404Z,3.00
2023-02-01T07:59:28.159Z,3.58
2023-02-01T08:01:54.909Z,3.90
2023-02-01T08:04:21.777Z,3.20
2023-02-01T08:06:48.568Z,3.53
2023-02-01T08:09:15.910Z,2.85
2023-02-01T08:11:42.701Z,3.85
2023-02-01T08:14:09.433Z,3.78
2023-02-01T08:16:38.361Z,2.70
2023-02-01T08:19:05.178Z,2.63
2023-02-01T08:21:37.776Z,3.78
2023-02-01T08:24:10.310Z,3.38
2023-02-01T08:26:37.105Z,3.47
2023-02-01T08:29:06.140Z,3.50
2023-02-01T08:31:33.031Z,3.50
2023-02-01T08:34:02.429Z,3.40
2023-02-01T08:36:31.318Z,3.60
2023-02-01T08:38:58.667Z,3.10
2023-02-01T08:41:28.449Z,3.05
2023-02-01T08:43:55.785Z,3.42
2023-02-01T08:46:23.661Z,4.55
2023-02-01T08:48:51.044Z,3.92
2023-02-01T08:51:20.395Z,3.92
2023-02-01T08:53:47.647Z,3.08
2023-02-01T08:56:16.790Z,3.60
2023-02-01T08:58:43.761Z,2.78
2023-02-01T09:01:13.971Z,3.10
2023-02-01T09:03:41.628Z,2.50
2023-02-01T09:06:10.956Z,2.60
2023-02-01T09:08:39.254Z,2.33
2023-02-01T09:11:13.199Z,2.58
2023-02-01T09:13:39.959Z,3.03
2023-02-01T09:16:07.161Z,2.67
2023-02-01T09:18:34.019Z,5.10
2023-02-01T09:21:04.530Z,2.75
2023-02-01T09:23:31.249Z,2.20
2023-02-01T09:26:05.341Z,2.55
2023-02-01T09:31:09.724Z,2.40
2023-02-01T09:33:36.837Z,2.70
2023-02-01T09:36:05.545Z,2.00
2023-02-01T09:38:34.611Z,2.13
2023-02-01T09:41:21.497Z,1.88
2023-02-01T09:43:55.188Z,2.50
2023-02-01T09:46:24.438Z,2.15
2023-02-01T09:48:56.265Z,2.30
2023-02-01T09:51:31.904Z,1.50
2023-02-01T09:54:04.468Z,2.35
2023-02-01T09:56:41.370Z,2.45
2023-02-01T09:59:23.051Z,3.00
2023-02-01T10:01:49.908Z,2.42
2023-02-01T10:04:18.423Z,2.28
2023-02-01T10:07:06.252Z,2.25
2023-02-01T10:09:33.622Z,2.45
2023-02-01T10:12:46.119Z,2.40
2023-02-01T10:15:40.705Z,3.10
2023-02-01T10:18:16.318Z,2.50
2023-02-01T10:20:53.535Z,3.08
2023-02-01T10:23:34.109Z,2.47
2023-02-01T10:26:21.234Z,2.70
2023-02-01T10:28:54.765Z,2.30
2023-02-01T10:31:29.717Z,2.15
2023-02-01T10:34:02.316Z,1.98
2023-02-01T10:36:41.592Z,2.60
2023-02-01T10:39:13.013Z,1.88
2023-02-01T10:41:41.666Z,2.42
2023-02-01T10:44:15.548Z,2.50
2023-02-01T10:46:42.622Z,2.25
2023-02-01T10:49:23.351Z,2.70
2023-02-01T10:51:59.112Z,2.13
2023-02-01T10:54:39.381Z,3.00
2023-02-01T10:57:24.708Z,3.17
2023-02-01T10:59:51.620Z,3.40
2023-02-01T11:02:35.459Z,3.20
2023-02-01T11:05:11.478Z,2.85
2023-02-01T11:07:39.874Z,2.65
2023-02-01T11:10:07.166Z,3.15
2023-02-01T11:12:38.085Z,3.25
2023-02-01T11:15:25.742Z,3.40
2023-02-01T11:17:53.818Z,3.42
2023-02-01T11:20:41.816Z,3.83
2023-02-01T11:23:20.677Z,3.50
2023-02-01T11:26:12.153Z,2.70
2023-02-01T11:28:41.818Z,3.50
2023-02-01T11:31:13.073Z,3.47
2023-02-01T11:33:48.567Z,3.40
2023-02-01T11:36:19.144Z,3.33
2023-02-01T11:39:14.095Z,4.03
2023-02-01T11:41:58.577Z,3.10
2023-02-01T11:44:37.832Z,3.45
2023-02-01T11:47:22.781Z,3.30
2023-02-01T11:49:52.341Z,3.30
2023-02-01T11:52:41.734Z,2.83
2023-02-01T11:55:17.485Z,2.90
2023-02-01T11:58:17.522Z,3.40
2023-02-01T12:01:02.345Z,2.90
2023-02-01T12:03:38.060Z,3.20
2023-02-01T12:06:22.920Z,2.90
2023-02-01T12:09:21.898Z,3.40
2023-02-01T12:12:02.958Z,3.42
2023-02-01T12:14:41.676Z,3.58
2023-02-01T12:17:17.668Z,3.75
2023-02-01T12:19:55.479Z,3.50
2023-02-01T12:22:43.535Z,3.28
2023-02-01T12:25:29.352Z,2.60
2023-02-01T12:28:08.478Z,3.15
2023-02-01T12:30:49.998Z,2.90
2023-02-01T12:33:23.042Z,3.25
2023-02-01T12:35:58.747Z,3.10
2023-02-01T12:38:48.960Z,3.55
2023-02-01T12:41:29.056Z,2.45
2023-02-01T12:43:58.651Z,2.55
2023-02-01T12:46:34.389Z,2.20
2023-02-01T12:49:18.667Z,3.40
2023-02-01T12:51:50.564Z,3.20
2023-02-01T12:54:23.054Z,2.70
2023-02-01T12:56:58.391Z,3.08
2023-02-01T12:59:42.858Z,2.33
2023-02-01T13:02:13.692Z,2.58
2023-02-01T13:05:04.341Z,2.50
2023-02-01T13:08:00.274Z,3.38
2023-02-01T13:10:34.359Z,3.20
2023-02-01T13:13:11.930Z,2.70
2023-02-01T13:16:09.748Z,2.80
2023-02-01T13:18:40.452Z,3.53
2023-02-01T13:21:13.900Z,2.97
2023-02-01T13:23:43.082Z,3.42
2023-02-01T13:26:09.968Z,3.08
2023-02-01T13:28:59.446Z,3.13
2023-02-01T13:31:47.618Z,4.43
2023-02-01T13:34:42.711Z,2.75
2023-02-01T13:37:32.726Z,3.35
2023-02-01T13:40:31.884Z,3.67
2023-02-01T13:43:09.125Z,3.50
2023-02-01T13:45:42.542Z,2.83
2023-02-01T13:48:21.771Z,2.85
2023-02-01T13:50:56.786Z,3.47
2023-02-01T13:53:34.201Z,3.10
2023-02-01T13:56:02.449Z,2.67
2023-02-01T13:58:40.379Z,3.53
2023-02-01T14:01:22.545Z,3.45
2023-02-01T14:03:55.497Z,5.60
2023-02-01T14:06:28.554Z,4.03
2023-02-01T14:09:12.579Z,3.72
2023-02-01T14:11:54.584Z,3.80
2023-02-01T14:14:26.879Z,3.13
2023-02-01T14:19:26.138Z,2.70
2023-02-01T14:22:02.529Z,2.67
2023-02-01T14:24:35.226Z,2.72
2023-02-01T14:27:22.201Z,2.42
2023-02-01T14:30:06.106Z,2.85
2023-02-01T14:32:37.566Z,1.80
2023-02-01T14:35:09.637Z,2.47
2023-02-01T14:37:39.245Z,3.40
2023-02-01T14:40:17.837Z,2.53
2023-02-01T14:42:46.486Z,1.58
2023-02-01T14:45:25.435Z,2.40
2023-02-01T14:48:07.544Z,2.42
2023-02-01T14:50:37.780Z,2.53
2023-02-01T14:53:16.429Z,2.13
2023-02-01T14:56:05.935Z,2.13
2023-02-01T14:58:35.706Z,2.10
2023-02-01T15:01:06.551Z,1.83
2023-02-01T15:03:51.443Z,1.92
2023-02-01T15:06:33.216Z,2.08
2023-02-01T15:09:19.745Z,1.83
2023-02-01T15:11:58.435Z,1.80
2023-02-01T15:14:26.919Z,1.50
2023-02-01T15:16:56.734Z,2.15
2023-02-01T15:19:26.086Z,1.65
2023-02-01T15:21:55.229Z,1.80
2023-02-01T15:24:39.998Z,1.85
2023-02-01T15:27:07.819Z,1.75
2023-02-01T15:29:35.092Z,2.38
2023-02-01T15:32:02.067Z,1.95
2023-02-01T15:34:49.924Z,1.67
2023-02-01T15:37:19.541Z,1.80
2023-02-01T15:40:04.896Z,2.13
2023-02-01T15:42:32.245Z,1.83
2023-02-01T15:44:58.999Z,1.92
2023-02-01T15:47:29.778Z,4.72
2023-02-01T15:49:59.386Z,2.22
2023-02-01T15:52:28.957Z,1.77
2023-02-01T15:55:01.465Z,1.30
2023-02-01T15:57:32.757Z,1.98
2023-02-01T16:00:09.264Z,1.30
2023-02-01T16:03:00.026Z,1.40
2023-02-01T16:05:34.884Z,1.30
2023-02-01T16:08:05.545Z,1.50
2023-02-01T16:10:33.091Z,1.15
2023-02-01T16:13:01.327Z,1.35
2023-02-01T16:15:30.774Z,1.20
2023-02-01T16:17:57.658Z,1.50
2023-02-01T16:20:24.490Z,1.40
2023-02-01T16:22:51.241Z,1.40
2023-02-01T16:25:17.967Z,1.58
2023-02-01T16:27:44.779Z,1.60
2023-02-01T16:30:12.590Z,1.35
2023-02-01T16:32:39.787Z,1.63
2023-02-01T16:35:36.874Z,2.13
2023-02-01T16:38:16.152Z,2.20
2023-02-01T16:40:44.331Z,2.38
2023-02-01T16:43:17.022Z,1.27
2023-02-01T16:45:48.733Z,2.25
2023-02-01T16:48:31.013Z,2.78
2023-02-01T16:51:01.257Z,2.00
2023-02-01T16:53:34.514Z,2.28
2023-02-01T16:56:07.281Z,2.10
2023-02-01T16:58:36.014Z,2.22
2023-02-01T17:01:02.883Z,2.10
2023-02-01T17:03:29.727Z,1.80
2023-02-01T17:05:58.298Z,2.05
2023-02-01T17:08:34.486Z,2.83
2023-02-01T17:11:02.142Z,2.65
2023-02-01T17:13:28.936Z,2.25
2023-02-01T17:16:00.237Z,3.22
2023-02-01T17:18:31.635Z,2.70
2023-02-01T17:21:03.468Z,3.73
2023-02-01T17:23:31.409Z,2.70
2023-02-01T17:25:59.052Z,3.45
2023-02-01T17:28:25.906Z,2.88
2023-02-01T17:30:52.780Z,6.35
2023-02-01T17:33:25.615Z,2.80
2023-02-01T17:35:55.017Z,2.40
2023-02-01T17:38:22.328Z,2.53
2023-02-01T17:40:49.115Z,2.13
2023-02-01T17:43:23.104Z,2.72
2023-02-01T17:45:52.748Z,2.08
2023-02-01T17:48:21.557Z,1.92
2023-02-01T17:50:58.600Z,2.55
2023-02-01T17:53:29.613Z,2.17
2023-02-01T17:55:58.493Z,1.85
2023-02-01T17:58:26.703Z,2.13
2023-02-01T18:00:54.505Z,2.83
2023-02-01T18:03:30.264Z,2.15
2023-02-01T18:05:58.188Z,2.42
2023-02-01T18:08:30.278Z,2.10
2023-02-01T18:11:01.876Z,2.03
2023-02-01T18:13:29.735Z,1.73
2023-02-01T18:15:56.628Z,2.50
2023-02-01T18:18:23.409Z,2.05
2023-02-01T18:20:50.517Z,4.30
2023-02-01T18:23:22.130Z,2.83
2023-02-01T18:25:51.478Z,1.85
2023-02-01T18:28:19.687Z,1.95
2023-02-01T18:30:50.806Z,2.88
2023-02-01T18:33:19.178Z,1.97
2023-02-01T18:35:46.584Z,1.83
2023-02-01T18:38:13.530Z,2.35
2023-02-01T18:40:51.569Z,2.70
2023-02-01T18:43:19.198Z,2.40
2023-02-01T18:45:47.388Z,2.92
2023-02-01T18:48:16.232Z,2.97
2023-02-01T18:50:44.930Z,2.13
2023-02-01T18:53:17.487Z,1.85
2023-02-01T18:55:44.329Z,1.98
2023-02-01T18:58:13.487Z,2.38
2023-02-01T19:00:40.281Z,2.53
2023-02-01T19:03:07.122Z,2.50
2023-02-01T19:05:34.264Z,2.55
2023-02-01T19:08:00.936Z,3.03
2023-02-01T19:10:27.837Z,2.40
2023-02-01T19:12:58.542Z,2.80
2023-02-01T19:15:26.451Z,2.13
2023-02-01T19:17:57.155Z,2.05
2023-02-01T19:20:27.284Z,2.53
2023-02-01T19:22:54.388Z,1.75
2023-02-01T19:25:24.759Z,3.03
2023-02-01T19:27:52.543Z,2.97
2023-02-01T19:30:20.866Z,3.17
2023-02-01T19:32:47.645Z,2.90
2023-02-01T19:35:19.220Z,2.53
2023-02-01T19:37:47.696Z,2.20
2023-02-01T19:40:17.625Z,1.98
2023-02-01T19:42:44.772Z,2.22
2023-02-01T19:45:11.874Z,2.33
2023-02-01T19:47:39.443Z,2.30
2023-02-01T19:50:07.245Z,2.55
2023-02-01T19:52:35.209Z,1.98
2023-02-01T19:55:02.742Z,1.83
2023-02-01T19:57:30.535Z,2.40
2023-02-01T19:59:57.484Z,2.58
2023-02-01T20:02:25.542Z,2.72
2023-02-01T20:04:52.508Z,2.20
2023-02-01T20:07:19.253Z,2.35
2023-02-01T20:09:46.009Z,2.00
2023-02-01T20:12:13.000Z,1.70
2023-02-01T20:14:40.079Z,1.60
2023-02-01T20:17:07.574Z,1.98
2023-02-01T20:19:34.730Z,1.60
2023-02-01T20:22:01.548Z,2.47
2023-02-01T20:24:28.301Z,1.75
2023-02-01T20:26:55.872Z,2.10
2023-02-01T20:29:22.947Z,1.98
2023-02-01T20:31:49.749Z,2.30
2023-02-01T20:34:16.602Z,1.95
2023-02-01T20:36:43.392Z,2.08
2023-02-01T20:39:13.436Z,2.10
2023-02-01T20:41:41.053Z,1.70
2023-02-01T20:44:07.920Z,1.88
2023-02-01T20:46:34.703Z,2.97
2023-02-01T20:49:01.477Z,2.83
2023-02-01T20:51:28.224Z,1.73
2023-02-01T20:53:55.283Z,2.30
2023-02-01T20:56:22.186Z,2.22
2023-02-01T20:58:48.926Z,1.50
2023-02-01T21:01:16.499Z,2.30
2023-02-01T21:03:43.414Z,1.73
2023-02-01T21:06:12.756Z,2.08
2023-02-01T21:08:41.453Z,2.17
2023-02-01T21:11:11.553Z,2.40
2023-02-01T21:13:44.146Z,1.65
2023-02-01T21:16:13.637Z,2.60
2023-02-01T21:18:40.869Z,2.55
2023-02-01T21:21:13.000Z,1.70
2023-02-01T21:23:45.720Z,1.67
2023-02-01T21:26:13.819Z,2.10
2023-02-01T21:28:40.845Z,2.10
2023-02-01T21:31:08.414Z,2.20
2023-02-01T21:33:36.061Z,2.40
2023-02-01T21:36:03.578Z,2.28
2023-02-01T21:38:30.488Z,1.70
2023-02-01T21:41:17.571Z,2.15
2023-02-01T21:43:45.076Z,1.85
2023-02-01T21:46:12.192Z,1.67
2023-02-01T21:49:04.914Z,1.85
2023-02-01T21:51:28.335Z,1.70
2023-02-01T21:53:56.201Z,1.48
2023-02-01T21:56:24.327Z,1.70
2023-02-01T21:58:51.250Z,1.58
2023-02-01T22:01:18.241Z,2.75
2023-02-01T22:03:45.143Z,1.83
2023-02-01T22:06:25.874Z,2.03
2023-02-01T22:08:52.965Z,1.55
2023-02-01T22:11:20.049Z,1.40
2023-02-01T22:13:47.207Z,2.05
2023-02-01T22:16:15.856Z,1.70
2023-02-01T22:18:44.567Z,1.60
2023-02-01T22:21:11.457Z,1.92
2023-02-01T22:23:38.230Z,1.73
2023-02-01T22:26:09.126Z,2.20
2023-02-01T22:28:37.338Z,2.13
2023-02-01T22:31:06.181Z,1.67
2023-02-01T22:33:33.931Z,1.70
2023-02-01T22:36:01.649Z,1.77
2023-02-01T22:38:31.629Z,1.65
2023-02-01T22:41:02.908Z,1.52
2023-02-01T22:43:30.342Z,1.40
2023-02-01T22:46:05.808Z,1.58
2023-02-01T22:48:36.417Z,1.35
2023-02-01T22:51:03.683Z,2.05
2023-02-01T22:53:31.669Z,2.20
2023-02-01T22:56:02.524Z,1.88
2023-02-01T22:58:29.285Z,3.10
2023-02-01T23:00:56.104Z,2.72
2023-02-01T23:03:23.125Z,1.23
2023-02-01T23:05:49.852Z,1.95
2023-02-01T23:08:16.628Z,1.63
2023-02-01T23:10:43.426Z,2.65
2023-02-01T23:13:10.156Z,2.10
2023-02-01T23:15:39.214Z,2.22
2023-02-01T23:18:06.020Z,1.52
2023-02-01T23:20:32.918Z,2.85
2023-02-01T23:22:59.662Z,1.20
2023-02-01T23:25:26.721Z,1.88
2023-02-01T23:27:53.669Z,1.95
2023-02-01T23:30:20.609Z,1.70
2023-02-01T23:32:47.393Z,1.60
2023-02-01T23:35:14.217Z,1.83
2023-02-01T23:37:40.974Z,2.03
2023-02-01T23:40:08.257Z,2.58
2023-02-01T23:42:35.253Z,1.80
2023-02-01T23:45:02.582Z,2.50
2023-02-01T23:47:29.403Z,2.58
2023-02-01T23:49:56.251Z,0.88
2023-02-01T23:52:23.201Z,1.55
2023-02-01T23:54:49.953Z,1.45
2023-02-01T23:57:16.691Z,3.47
2023-02-01T23:59:43.743Z,2.70
